sensor_id;sensor_type;location;lat;lon;timestamp;P1;durP1;ratioP1;P2;durP2;ratioP2
72275;SDS011;61204;49.980;8.358;2023-12-07T00:01:51;14.25;;;7.68;;
72275;SDS011;61204;49.980;8.358;2023-12-07T00:04:16;16.30;;;7.72;;
72275;SDS011;61204;49.980;8.358;2023-12-07T00:06:44;16.55;;;8.05;;
72275;SDS011;61204;49.980;8.358;2023-12-07T00:09:09;14.23;;;7.57;;
72275;SDS011;61204;49.980;8.358;2023-12-07T00:11:35;13.18;;;7.80;;
72275;SDS011;61204;49.980;8.358;2023-12-07T00:14:01;15.00;;;7.43;;
72275;SDS011;61204;49.980;8.358;2023-12-07T00:16:27;14.07;;;8.45;;
72275;SDS011;61204;49.980;8.358;2023-12-07T00:18:54;18.10;;;9.30;;
72275;SDS011;61204;49.980;8.358;2023-12-07T00:21:20;11.38;;;8.05;;
72275;SDS011;61204;49.980;8.358;2023-12-07T00:23:45;17.48;;;7.90;;
72275;SDS011;61204;49.980;8.358;2023-12-07T00:26:11;15.65;;;7.80;;
72275;SDS011;61204;49.980;8.358;2023-12-07T00:28:39;15.98;;;8.43;;
72275;SDS011;61204;49.980;8.358;2023-12-07T00:31:04;12.73;;;7.95;;
72275;SDS011;61204;49.980;8.358;2023-12-07T00:33:30;14.80;;;8.32;;
72275;SDS011;61204;49.980;8.358;2023-12-07T00:35:56;16.23;;;8.85;;
72275;SDS011;61204;49.980;8.358;2023-12-07T00:38:21;13.23;;;8.15;;
72275;SDS011;61204;49.980;8.358;2023-12-07T00:40:47;17.02;;;8.48;;
72275;SDS011;61204;49.980;8.358;2023-12-07T00:43:13;15.98;;;8.00;;
72275;SDS011;61204;49.980;8.358;2023-12-07T00:45:38;16.60;;;9.45;;
72275;SDS011;61204;49.980;8.358;2023-12-07T00:48:04;18.05;;;9.52;;
72275;SDS011;61204;49.980;8.358;2023-12-07T00:50:30;17.92;;;9.88;;
72275;SDS011;61204;49.980;8.358;2023-12-07T00:52:56;15.40;;;8.77;;
72275;SDS011;61204;49.980;8.358;2023-12-07T00:55:21;19.05;;;9.48;;
72275;SDS011;61204;49.980;8.358;2023-12-07T00:57:47;18.08;;;9.77;;
72275;SDS011;61204;49.980;8.358;2023-12-07T01:00:13;15.40;;;8.90;;
72275;SDS011;61204;49.980;8.358;2023-12-07T01:02:39;17.20;;;9.32;;
72275;SDS011;61204;49.980;8.358;2023-12-07T01:05:05;14.00;;;8.50;;
72275;SDS011;61204;49.980;8.358;2023-12-07T01:07:30;13.82;;;8.30;;
72275;SDS011;61204;49.980;8.358;2023-12-07T01:09:56;16.17;;;9.02;;
72275;SDS011;61204;49.980;8.358;2023-12-07T01:12:21;14.95;;;8.13;;
72275;SDS011;61204;49.980;8.358;2023-12-07T01:14:47;11.85;;;7.57;;
72275;SDS011;61204;49.980;8.358;2023-12-07T01:17:13;17.85;;;9.05;;
72275;SDS011;61204;49.980;8.358;2023-12-07T01:19:38;15.85;;;8.57;;
72275;SDS011;61204;49.980;8.358;2023-12-07T01:22:04;14.25;;;7.90;;
72275;SDS011;61204;49.980;8.358;2023-12-07T01:24:29;14.07;;;8.52;;
72275;SDS011;61204;49.980;8.358;2023-12-07T01:26:55;19.25;;;8.82;;
72275;SDS011;61204;49.980;8.358;2023-12-07T01:29:23;16.67;;;9.65;;
72275;SDS011;61204;49.980;8.358;2023-12-07T01:31:49;13.55;;;7.75;;
72275;SDS011;61204;49.980;8.358;2023-12-07T01:34:14;15.85;;;8.95;;
72275;SDS011;61204;49.980;8.358;2023-12-07T01:36:43;23.10;;;11.45;;
72275;SDS011;61204;49.980;8.358;2023-12-07T01:39:09;18.67;;;10.30;;
72275;SDS011;61204;49.980;8.358;2023-12-07T01:41:37;19.25;;;8.80;;
72275;SDS011;61204;49.980;8.358;2023-12-07T01:44:05;20.17;;;10.15;;
72275;SDS011;61204;49.980;8.358;2023-12-07T01:46:30;19.00;;;9.75;;
72275;SDS011;61204;49.980;8.358;2023-12-07T01:48:58;22.30;;;9.65;;
72275;SDS011;61204;49.980;8.358;2023-12-07T01:51:25;20.95;;;10.45;;
72275;SDS011;61204;49.980;8.358;2023-12-07T01:53:51;23.13;;;10.30;;
72275;SDS011;61204;49.980;8.358;2023-12-07T01:56:23;27.00;;;10.80;;
72275;SDS011;61204;49.980;8.358;2023-12-07T01:58:51;17.08;;;9.68;;
72275;SDS011;61204;49.980;8.358;2023-12-07T02:01:16;23.48;;;11.45;;
72275;SDS011;61204;49.980;8.358;2023-12-07T02:03:42;19.30;;;10.73;;
72275;SDS011;61204;49.980;8.358;2023-12-07T02:06:08;19.65;;;10.93;;
72275;SDS011;61204;49.980;8.358;2023-12-07T02:08:38;18.33;;;9.63;;
72275;SDS011;61204;49.980;8.358;2023-12-07T02:11:06;17.25;;;8.65;;
72275;SDS011;61204;49.980;8.358;2023-12-07T02:13:34;17.63;;;8.90;;
72275;SDS011;61204;49.980;8.358;2023-12-07T02:16:05;16.67;;;9.23;;
72275;SDS011;61204;49.980;8.358;2023-12-07T02:18:58;18.17;;;9.60;;
72275;SDS011;61204;49.980;8.358;2023-12-07T02:22:26;15.90;;;9.02;;
72275;SDS011;61204;49.980;8.358;2023-12-07T02:30:13;18.00;;;9.32;;
72275;SDS011;61204;49.980;8.358;2023-12-07T02:32:40;16.75;;;9.55;;
72275;SDS011;61204;49.980;8.358;2023-12-07T02:35:11;14.75;;;9.25;;
72275;SDS011;61204;49.980;8.358;2023-12-07T02:37:44;14.40;;;9.20;;
72275;SDS011;61204;49.980;8.358;2023-12-07T02:40:16;19.77;;;9.40;;
72275;SDS011;61204;49.980;8.358;2023-12-07T02:42:48;13.65;;;9.13;;
72275;SDS011;61204;49.980;8.358;2023-12-07T02:45:16;16.63;;;9.13;;
72275;SDS011;61204;49.980;8.358;2023-12-07T02:47:42;19.60;;;9.45;;
72275;SDS011;61204;49.980;8.358;2023-12-07T02:50:10;24.30;;;10.32;;
72275;SDS011;61204;49.980;8.358;2023-12-07T02:52:38;18.40;;;9.43;;
72275;SDS011;61204;49.980;8.358;2023-12-07T02:55:04;15.95;;;9.25;;
72275;SDS011;61204;49.980;8.358;2023-12-07T02:57:31;18.95;;;10.65;;
72275;SDS011;61204;49.980;8.358;2023-12-07T02:59:58;21.48;;;11.32;;
72275;SDS011;61204;49.980;8.358;2023-12-07T03:02:25;21.20;;;10.32;;
72275;SDS011;61204;49.980;8.358;2023-12-07T03:04:51;17.23;;;10.68;;
72275;SDS011;61204;49.980;8.358;2023-12-07T03:07:17;25.27;;;10.93;;
72275;SDS011;61204;49.980;8.358;2023-12-07T03:09:43;16.15;;;10.15;;
72275;SDS011;61204;49.980;8.358;2023-12-07T03:12:10;19.20;;;10.18;;
72275;SDS011;61204;49.980;8.358;2023-12-07T03:14:36;19.00;;;10.60;;
72275;SDS011;61204;49.980;8.358;2023-12-07T03:17:02;18.55;;;10.30;;
72275;SDS011;61204;49.980;8.358;2023-12-07T03:19:28;17.77;;;10.32;;
72275;SDS011;61204;49.980;8.358;2023-12-07T03:21:53;17.42;;;9.88;;
72275;SDS011;61204;49.980;8.358;2023-12-07T03:24:19;18.50;;;10.40;;
72275;SDS011;61204;49.980;8.358;2023-12-07T03:26:45;17.65;;;10.63;;
72275;SDS011;61204;49.980;8.358;2023-12-07T03:29:15;18.33;;;10.95;;
72275;SDS011;61204;49.980;8.358;2023-12-07T03:31:41;23.00;;;11.90;;
72275;SDS011;61204;49.980;8.358;2023-12-07T03:34:06;25.00;;;11.43;;
72275;SDS011;61204;49.980;8.358;2023-12-07T03:36:32;21.90;;;11.65;;
72275;SDS011;61204;49.980;8.358;2023-12-07T03:38:57;26.83;;;13.38;;
72275;SDS011;61204;49.980;8.358;2023-12-07T03:41:23;17.92;;;11.30;;
72275;SDS011;61204;49.980;8.358;2023-12-07T03:43:48;25.48;;;11.13;;
72275;SDS011;61204;49.980;8.358;2023-12-07T03:46:14;18.80;;;10.75;;
72275;SDS011;61204;49.980;8.358;2023-12-07T03:48:39;22.30;;;10.95;;
72275;SDS011;61204;49.980;8.358;2023-12-07T03:51:05;19.15;;;10.85;;
72275;SDS011;61204;49.980;8.358;2023-12-07T03:53:33;22.08;;;11.07;;
72275;SDS011;61204;49.980;8.358;2023-12-07T03:55:58;21.33;;;11.05;;
72275;SDS011;61204;49.980;8.358;2023-12-07T03:58:24;22.25;;;12.10;;
72275;SDS011;61204;49.980;8.358;2023-12-07T04:00:49;22.85;;;10.30;;
72275;SDS011;61204;49.980;8.358;2023-12-07T04:03:15;22.73;;;11.95;;
72275;SDS011;61204;49.980;8.358;2023-12-07T04:05:40;27.23;;;11.90;;
72275;SDS011;61204;49.980;8.358;2023-12-07T04:08:06;34.25;;;12.60;;
72275;SDS011;61204;49.980;8.358;2023-12-07T04:10:31;18.35;;;11.18;;
72275;SDS011;61204;49.980;8.358;2023-12-07T04:12:57;24.75;;;11.70;;
72275;SDS011;61204;49.980;8.358;2023-12-07T04:15:25;45.80;;;14.10;;
72275;SDS011;61204;49.980;8.358;2023-12-07T04:17:51;23.73;;;11.85;;
72275;SDS011;61204;49.980;8.358;2023-12-07T04:20:17;22.67;;;12.07;;
72275;SDS011;61204;49.980;8.358;2023-12-07T04:22:43;20.95;;;11.93;;
72275;SDS011;61204;49.980;8.358;2023-12-07T04:25:10;20.63;;;11.73;;
72275;SDS011;61204;49.980;8.358;2023-12-07T04:27:36;18.75;;;10.85;;
72275;SDS011;61204;49.980;8.358;2023-12-07T04:30:01;21.10;;;12.43;;
72275;SDS011;61204;49.980;8.358;2023-12-07T04:32:28;20.85;;;11.70;;
72275;SDS011;61204;49.980;8.358;2023-12-07T04:34:54;55.42;;;13.15;;
72275;SDS011;61204;49.980;8.358;2023-12-07T04:37:20;26.10;;;11.48;;
72275;SDS011;61204;49.980;8.358;2023-12-07T04:39:46;63.55;;;14.80;;
72275;SDS011;61204;49.980;8.358;2023-12-07T04:42:12;64.65;;;15.30;;
72275;SDS011;61204;49.980;8.358;2023-12-07T04:44:38;19.63;;;10.93;;
72275;SDS011;61204;49.980;8.358;2023-12-07T04:47:03;23.42;;;12.70;;
72275;SDS011;61204;49.980;8.358;2023-12-07T04:49:29;19.13;;;10.63;;
72275;SDS011;61204;49.980;8.358;2023-12-07T04:51:55;21.85;;;10.85;;
72275;SDS011;61204;49.980;8.358;2023-12-07T04:54:20;19.88;;;10.68;;
72275;SDS011;61204;49.980;8.358;2023-12-07T04:56:46;18.73;;;11.85;;
72275;SDS011;61204;49.980;8.358;2023-12-07T04:59:16;19.30;;;10.13;;
72275;SDS011;61204;49.980;8.358;2023-12-07T05:01:42;19.92;;;11.10;;
72275;SDS011;61204;49.980;8.358;2023-12-07T05:04:08;20.67;;;10.02;;
72275;SDS011;61204;49.980;8.358;2023-12-07T05:06:34;16.83;;;10.85;;
72275;SDS011;61204;49.980;8.358;2023-12-07T05:09:00;17.05;;;9.68;;
72275;SDS011;61204;49.980;8.358;2023-12-07T05:11:26;20.95;;;10.63;;
72275;SDS011;61204;49.980;8.358;2023-12-07T05:13:51;21.00;;;11.70;;
72275;SDS011;61204;49.980;8.358;2023-12-07T05:16:17;21.80;;;9.95;;
72275;SDS011;61204;49.980;8.358;2023-12-07T05:18:42;17.25;;;9.65;;
72275;SDS011;61204;49.980;8.358;2023-12-07T05:21:09;16.98;;;9.38;;
72275;SDS011;61204;49.980;8.358;2023-12-07T05:23:34;20.95;;;9.93;;
72275;SDS011;61204;49.980;8.358;2023-12-07T05:26:00;19.48;;;11.07;;
72275;SDS011;61204;49.980;8.358;2023-12-07T05:28:26;18.60;;;11.10;;
72275;SDS011;61204;49.980;8.358;2023-12-07T05:30:52;27.55;;;13.13;;
72275;SDS011;61204;49.980;8.358;2023-12-07T05:33:18;30.95;;;13.43;;
72275;SDS011;61204;49.980;8.358;2023-12-07T05:35:47;21.95;;;12.57;;
72275;SDS011;61204;49.980;8.358;2023-12-07T05:38:13;28.92;;;13.50;;
72275;SDS011;61204;49.980;8.358;2023-12-07T05:40:38;26.48;;;14.13;;
72275;SDS011;61204;49.980;8.358;2023-12-07T05:43:04;27.17;;;13.13;;
72275;SDS011;61204;49.980;8.358;2023-12-07T05:45:29;22.45;;;12.75;;
72275;SDS011;61204;49.980;8.358;2023-12-07T05:47:55;23.50;;;11.95;;
72275;SDS011;61204;49.980;8.358;2023-12-07T05:50:21;23.70;;;11.65;;
72275;SDS011;61204;49.980;8.358;2023-12-07T05:52:47;24.00;;;11.35;;
72275;SDS011;61204;49.980;8.358;2023-12-07T05:55:12;21.55;;;12.35;;
72275;SDS011;61204;49.980;8.358;2023-12-07T05:57:41;22.73;;;12.43;;
72275;SDS011;61204;49.980;8.358;2023-12-07T06:00:06;21.25;;;12.93;;
72275;SDS011;61204;49.980;8.358;2023-12-07T06:02:34;24.60;;;13.52;;
72275;SDS011;61204;49.980;8.358;2023-12-07T06:05:01;29.52;;;14.40;;
72275;SDS011;61204;49.980;8.358;2023-12-07T06:07:30;28.33;;;14.93;;
72275;SDS011;61204;49.980;8.358;2023-12-07T06:09:56;28.10;;;13.35;;
72275;SDS011;61204;49.980;8.358;2023-12-07T06:12:22;24.58;;;14.43;;
72275;SDS011;61204;49.980;8.358;2023-12-07T06:14:48;26.35;;;13.38;;
72275;SDS011;61204;49.980;8.358;2023-12-07T06:17:14;28.77;;;13.93;;
72275;SDS011;61204;49.980;8.358;2023-12-07T06:19:40;26.23;;;13.18;;
72275;SDS011;61204;49.980;8.358;2023-12-07T06:22:05;24.27;;;13.93;;
72275;SDS011;61204;49.980;8.358;2023-12-07T06:24:31;25.95;;;13.63;;
72275;SDS011;61204;49.980;8.358;2023-12-07T06:26:57;28.30;;;14.48;;
72275;SDS011;61204;49.980;8.358;2023-12-07T06:29:27;21.77;;;13.48;;
72275;SDS011;61204;49.980;8.358;2023-12-07T06:31:55;27.60;;;13.82;;
72275;SDS011;61204;49.980;8.358;2023-12-07T06:34:23;28.98;;;13.15;;
72275;SDS011;61204;49.980;8.358;2023-12-07T06:36:48;26.50;;;13.93;;
72275;SDS011;61204;49.980;8.358;2023-12-07T06:39:14;26.60;;;14.05;;
72275;SDS011;61204;49.980;8.358;2023-12-07T06:41:39;27.38;;;13.55;;
72275;SDS011;61204;49.980;8.358;2023-12-07T06:44:07;26.25;;;13.60;;
72275;SDS011;61204;49.980;8.358;2023-12-07T06:46:33;29.23;;;14.63;;
72275;SDS011;61204;49.980;8.358;2023-12-07T06:48:59;34.53;;;15.73;;
72275;SDS011;61204;49.980;8.358;2023-12-07T06:51:25;27.83;;;14.13;;
72275;SDS011;61204;49.980;8.358;2023-12-07T06:53:50;26.20;;;15.02;;
72275;SDS011;61204;49.980;8.358;2023-12-07T06:56:16;30.00;;;15.15;;
72275;SDS011;61204;49.980;8.358;2023-12-07T06:58:42;29.58;;;15.23;;
72275;SDS011;61204;49.980;8.358;2023-12-07T07:01:12;32.58;;;14.27;;
72275;SDS011;61204;49.980;8.358;2023-12-07T07:03:38;32.92;;;14.07;;
72275;SDS011;61204;49.980;8.358;2023-12-07T07:06:04;35.45;;;14.10;;
72275;SDS011;61204;49.980;8.358;2023-12-07T07:08:30;28.77;;;15.35;;
72275;SDS011;61204;49.980;8.358;2023-12-07T07:10:55;21.58;;;13.00;;
72275;SDS011;61204;49.980;8.358;2023-12-07T07:13:21;32.08;;;14.57;;
72275;SDS011;61204;49.980;8.358;2023-12-07T07:15:47;43.03;;;15.75;;
72275;SDS011;61204;49.980;8.358;2023-12-07T07:18:15;48.65;;;17.15;;
72275;SDS011;61204;49.980;8.358;2023-12-07T07:20:40;58.15;;;17.40;;
72275;SDS011;61204;49.980;8.358;2023-12-07T07:23:06;146.25;;;24.70;;
72275;SDS011;61204;49.980;8.358;2023-12-07T07:25:33;112.72;;;21.17;;
72275;SDS011;61204;49.980;8.358;2023-12-07T07:27:59;92.88;;;20.08;;
72275;SDS011;61204;49.980;8.358;2023-12-07T07:30:25;90.50;;;19.58;;
72275;SDS011;61204;49.980;8.358;2023-12-07T07:32:51;731.88;;;79.97;;
72275;SDS011;61204;49.980;8.358;2023-12-07T07:35:17;333.55;;;38.90;;
72275;SDS011;61204;49.980;8.358;2023-12-07T07:37:42;63.67;;;17.13;;
72275;SDS011;61204;49.980;8.358;2023-12-07T07:40:08;35.58;;;16.25;;
72275;SDS011;61204;49.980;8.358;2023-12-07T07:42:37;49.05;;;16.77;;
72275;SDS011;61204;49.980;8.358;2023-12-07T07:45:05;40.65;;;17.48;;
72275;SDS011;61204;49.980;8.358;2023-12-07T07:47:33;58.92;;;18.10;;
72275;SDS011;61204;49.980;8.358;2023-12-07T07:49:58;66.60;;;18.02;;
72275;SDS011;61204;49.980;8.358;2023-12-07T07:52:29;42.60;;;16.25;;
72275;SDS011;61204;49.980;8.358;2023-12-07T07:54:58;47.53;;;16.95;;
72275;SDS011;61204;49.980;8.358;2023-12-07T07:57:26;46.47;;;16.48;;
72275;SDS011;61204;49.980;8.358;2023-12-07T07:59:51;36.47;;;15.85;;
72275;SDS011;61204;49.980;8.358;2023-12-07T08:02:17;49.15;;;15.82;;
72275;SDS011;61204;49.980;8.358;2023-12-07T08:04:42;80.32;;;20.40;;
72275;SDS011;61204;49.980;8.358;2023-12-07T08:07:10;49.20;;;16.27;;
72275;SDS011;61204;49.980;8.358;2023-12-07T08:09:36;34.13;;;15.98;;
72275;SDS011;61204;49.980;8.358;2023-12-07T08:12:01;34.20;;;15.60;;
72275;SDS011;61204;49.980;8.358;2023-12-07T08:14:27;29.42;;;14.95;;
72275;SDS011;61204;49.980;8.358;2023-12-07T08:16:53;136.82;;;23.70;;
72275;SDS011;61204;49.980;8.358;2023-12-07T08:19:18;121.13;;;23.33;;
72275;SDS011;61204;49.980;8.358;2023-12-07T08:21:44;69.20;;;15.55;;
72275;SDS011;61204;49.980;8.358;2023-12-07T08:24:09;67.00;;;16.20;;
72275;SDS011;61204;49.980;8.358;2023-12-07T08:26:37;85.13;;;17.65;;
72275;SDS011;61204;49.980;8.358;2023-12-07T08:29:04;49.85;;;13.95;;
72275;SDS011;61204;49.980;8.358;2023-12-07T08:31:30;61.10;;;14.57;;
72275;SDS011;61204;49.980;8.358;2023-12-07T08:33:56;60.47;;;14.50;;
72275;SDS011;61204;49.980;8.358;2023-12-07T08:36:21;82.45;;;17.80;;
72275;SDS011;61204;49.980;8.358;2023-12-07T08:38:47;99.60;;;20.50;;
72275;SDS011;61204;49.980;8.358;2023-12-07T08:41:13;83.32;;;18.05;;
72275;SDS011;61204;49.980;8.358;2023-12-07T08:43:39;45.05;;;17.75;;
72275;SDS011;61204;49.980;8.358;2023-12-07T08:46:07;126.80;;;23.15;;
72275;SDS011;61204;49.980;8.358;2023-12-07T08:48:33;53.95;;;18.48;;
72275;SDS011;61204;49.980;8.358;2023-12-07T08:50:59;49.25;;;18.27;;
72275;SDS011;61204;49.980;8.358;2023-12-07T08:53:25;46.13;;;19.08;;
72275;SDS011;61204;49.980;8.358;2023-12-07T08:55:51;63.17;;;21.73;;
72275;SDS011;61204;49.980;8.358;2023-12-07T08:58:18;53.88;;;20.10;;
72275;SDS011;61204;49.980;8.358;2023-12-07T09:00:43;85.22;;;22.00;;
72275;SDS011;61204;49.980;8.358;2023-12-07T09:03:09;57.70;;;20.27;;
72275;SDS011;61204;49.980;8.358;2023-12-07T09:05:35;142.18;;;24.63;;
72275;SDS011;61204;49.980;8.358;2023-12-07T09:08:05;70.97;;;21.05;;
72275;SDS011;61204;49.980;8.358;2023-12-07T09:10:31;71.50;;;20.63;;
72275;SDS011;61204;49.980;8.358;2023-12-07T09:12:57;76.90;;;21.67;;
72275;SDS011;61204;49.980;8.358;2023-12-07T09:15:23;90.07;;;22.33;;
72275;SDS011;61204;49.980;8.358;2023-12-07T09:17:48;83.70;;;20.88;;
72275;SDS011;61204;49.980;8.358;2023-12-07T09:20:15;86.60;;;22.55;;
72275;SDS011;61204;49.980;8.358;2023-12-07T09:22:42;167.43;;;25.55;;
72275;SDS011;61204;49.980;8.358;2023-12-07T09:25:10;82.85;;;21.17;;
72275;SDS011;61204;49.980;8.358;2023-12-07T09:27:38;100.05;;;21.88;;
72275;SDS011;61204;49.980;8.358;2023-12-07T09:30:05;57.45;;;19.90;;
72275;SDS011;61204;49.980;8.358;2023-12-07T09:32:36;65.22;;;21.40;;
72275;SDS011;61204;49.980;8.358;2023-12-07T09:35:07;79.85;;;24.48;;
72275;SDS011;61204;49.980;8.358;2023-12-07T09:37:43;61.47;;;22.42;;
72275;SDS011;61204;49.980;8.358;2023-12-07T09:40:17;53.05;;;21.58;;
72275;SDS011;61204;49.980;8.358;2023-12-07T09:42:48;68.80;;;21.75;;
72275;SDS011;61204;49.980;8.358;2023-12-07T09:45:17;104.78;;;24.52;;
72275;SDS011;61204;49.980;8.358;2023-12-07T09:47:48;52.50;;;21.38;;
72275;SDS011;61204;49.980;8.358;2023-12-07T09:50:20;104.25;;;25.58;;
72275;SDS011;61204;49.980;8.358;2023-12-07T09:52:51;77.70;;;24.08;;
72275;SDS011;61204;49.980;8.358;2023-12-07T09:55:21;90.47;;;26.73;;
72275;SDS011;61204;49.980;8.358;2023-12-07T09:57:48;69.20;;;24.02;;
72275;SDS011;61204;49.980;8.358;2023-12-07T10:00:15;90.55;;;22.33;;
72275;SDS011;61204;49.980;8.358;2023-12-07T10:02:43;55.65;;;23.23;;
72275;SDS011;61204;49.980;8.358;2023-12-07T10:05:12;53.15;;;21.85;;
72275;SDS011;61204;49.980;8.358;2023-12-07T10:07:44;45.45;;;21.88;;
72275;SDS011;61204;49.980;8.358;2023-12-07T10:10:15;46.05;;;21.20;;
72275;SDS011;61204;49.980;8.358;2023-12-07T10:15:21;54.50;;;21.25;;
72275;SDS011;61204;49.980;8.358;2023-12-07T10:20:19;46.00;;;21.17;;
72275;SDS011;61204;49.980;8.358;2023-12-07T10:22:48;40.60;;;18.13;;
72275;SDS011;61204;49.980;8.358;2023-12-07T10:25:28;38.97;;;18.50;;
72275;SDS011;61204;49.980;8.358;2023-12-07T10:27:56;45.13;;;19.85;;
72275;SDS011;61204;49.980;8.358;2023-12-07T10:30:22;37.45;;;19.38;;
72275;SDS011;61204;49.980;8.358;2023-12-07T10:32:51;41.17;;;18.77;;
72275;SDS011;61204;49.980;8.358;2023-12-07T10:35:17;41.10;;;17.85;;
72275;SDS011;61204;49.980;8.358;2023-12-07T10:37:45;44.70;;;18.55;;
72275;SDS011;61204;49.980;8.358;2023-12-07T10:40:13;33.38;;;16.92;;
72275;SDS011;61204;49.980;8.358;2023-12-07T10:42:40;37.55;;;17.55;;
72275;SDS011;61204;49.980;8.358;2023-12-07T10:45:13;31.25;;;17.45;;
72275;SDS011;61204;49.980;8.358;2023-12-07T10:47:44;36.85;;;18.92;;
72275;SDS011;61204;49.980;8.358;2023-12-07T10:50:10;37.00;;;17.02;;
72275;SDS011;61204;49.980;8.358;2023-12-07T10:52:44;36.22;;;17.15;;
72275;SDS011;61204;49.980;8.358;2023-12-07T10:55:30;34.22;;;16.65;;
72275;SDS011;61204;49.980;8.358;2023-12-07T10:58:12;36.83;;;16.23;;
72275;SDS011;61204;49.980;8.358;2023-12-07T11:00:44;97.95;;;18.30;;
72275;SDS011;61204;49.980;8.358;2023-12-07T11:03:14;106.25;;;21.50;;
72275;SDS011;61204;49.980;8.358;2023-12-07T11:05:42;47.58;;;16.50;;
72275;SDS011;61204;49.980;8.358;2023-12-07T11:08:13;37.03;;;17.60;;
72275;SDS011;61204;49.980;8.358;2023-12-07T11:13:34;33.22;;;16.42;;
72275;SDS011;61204;49.980;8.358;2023-12-07T11:16:03;39.03;;;18.77;;
72275;SDS011;61204;49.980;8.358;2023-12-07T11:18:29;39.15;;;18.40;;
72275;SDS011;61204;49.980;8.358;2023-12-07T11:20:56;41.25;;;18.85;;
72275;SDS011;61204;49.980;8.358;2023-12-07T11:23:23;46.60;;;18.35;;
72275;SDS011;61204;49.980;8.358;2023-12-07T11:25:49;44.33;;;18.33;;
72275;SDS011;61204;49.980;8.358;2023-12-07T11:28:21;41.50;;;19.58;;
72275;SDS011;61204;49.980;8.358;2023-12-07T11:31:01;44.50;;;18.55;;
72275;SDS011;61204;49.980;8.358;2023-12-07T11:33:28;40.90;;;19.33;;
72275;SDS011;61204;49.980;8.358;2023-12-07T11:38:26;41.22;;;19.15;;
72275;SDS011;61204;49.980;8.358;2023-12-07T11:40:53;40.33;;;19.70;;
72275;SDS011;61204;49.980;8.358;2023-12-07T11:43:36;38.50;;;17.75;;
72275;SDS011;61204;49.980;8.358;2023-12-07T11:46:08;39.97;;;18.63;;
72275;SDS011;61204;49.980;8.358;2023-12-07T11:48:39;40.97;;;19.35;;
72275;SDS011;61204;49.980;8.358;2023-12-07T11:51:05;45.97;;;19.90;;
72275;SDS011;61204;49.980;8.358;2023-12-07T11:53:33;41.28;;;19.17;;
72275;SDS011;61204;49.980;8.358;2023-12-07T11:56:03;42.67;;;19.60;;
72275;SDS011;61204;49.980;8.358;2023-12-07T11:58:37;41.17;;;17.35;;
72275;SDS011;61204;49.980;8.358;2023-12-07T12:01:03;37.58;;;18.17;;
72275;SDS011;61204;49.980;8.358;2023-12-07T12:03:29;42.60;;;20.08;;
72275;SDS011;61204;49.980;8.358;2023-12-07T12:06:03;46.63;;;20.05;;
72275;SDS011;61204;49.980;8.358;2023-12-07T12:08:32;50.92;;;19.77;;
72275;SDS011;61204;49.980;8.358;2023-12-07T12:10:58;46.10;;;20.42;;
72275;SDS011;61204;49.980;8.358;2023-12-07T12:13:29;42.85;;;19.25;;
72275;SDS011;61204;49.980;8.358;2023-12-07T12:16:00;49.83;;;18.88;;
72275;SDS011;61204;49.980;8.358;2023-12-07T12:18:29;53.83;;;22.67;;
72275;SDS011;61204;49.980;8.358;2023-12-07T12:20:55;54.08;;;22.77;;
72275;SDS011;61204;49.980;8.358;2023-12-07T12:23:22;121.25;;;26.25;;
72275;SDS011;61204;49.980;8.358;2023-12-07T12:25:48;55.38;;;22.15;;
72275;SDS011;61204;49.980;8.358;2023-12-07T12:28:17;57.90;;;20.95;;
72275;SDS011;61204;49.980;8.358;2023-12-07T12:30:47;51.70;;;22.45;;
72275;SDS011;61204;49.980;8.358;2023-12-07T12:33:14;108.57;;;23.55;;
72275;SDS011;61204;49.980;8.358;2023-12-07T12:35:40;51.42;;;19.70;;
72275;SDS011;61204;49.980;8.358;2023-12-07T12:38:09;47.08;;;19.65;;
72275;SDS011;61204;49.980;8.358;2023-12-07T12:40:36;41.83;;;19.73;;
72275;SDS011;61204;49.980;8.358;2023-12-07T12:43:02;49.78;;;18.55;;
72275;SDS011;61204;49.980;8.358;2023-12-07T12:45:28;50.42;;;20.33;;
72275;SDS011;61204;49.980;8.358;2023-12-07T12:47:53;45.20;;;19.85;;
72275;SDS011;61204;49.980;8.358;2023-12-07T12:50:32;46.95;;;20.48;;
72275;SDS011;61204;49.980;8.358;2023-12-07T12:53:06;48.95;;;20.23;;
72275;SDS011;61204;49.980;8.358;2023-12-07T12:55:36;38.40;;;18.08;;
72275;SDS011;61204;49.980;8.358;2023-12-07T12:58:09;50.13;;;18.70;;
72275;SDS011;61204;49.980;8.358;2023-12-07T13:00:38;39.47;;;17.98;;
72275;SDS011;61204;49.980;8.358;2023-12-07T13:03:06;53.67;;;20.33;;
72275;SDS011;61204;49.980;8.358;2023-12-07T13:05:32;47.67;;;18.35;;
72275;SDS011;61204;49.980;8.358;2023-12-07T13:07:59;47.10;;;20.33;;
72275;SDS011;61204;49.980;8.358;2023-12-07T13:10:26;59.42;;;20.52;;
72275;SDS011;61204;49.980;8.358;2023-12-07T13:12:52;60.05;;;22.00;;
72275;SDS011;61204;49.980;8.358;2023-12-07T13:15:18;52.13;;;19.00;;
72275;SDS011;61204;49.980;8.358;2023-12-07T13:17:43;50.88;;;19.88;;
72275;SDS011;61204;49.980;8.358;2023-12-07T13:20:10;56.25;;;20.30;;
72275;SDS011;61204;49.980;8.358;2023-12-07T13:22:38;43.90;;;17.40;;
72275;SDS011;61204;49.980;8.358;2023-12-07T13:25:04;45.58;;;18.33;;
72275;SDS011;61204;49.980;8.358;2023-12-07T13:27:32;42.60;;;16.95;;
72275;SDS011;61204;49.980;8.358;2023-12-07T13:29:59;46.15;;;17.70;;
72275;SDS011;61204;49.980;8.358;2023-12-07T13:32:30;49.97;;;19.02;;
72275;SDS011;61204;49.980;8.358;2023-12-07T13:34:57;39.35;;;15.27;;
72275;SDS011;61204;49.980;8.358;2023-12-07T13:37:23;31.80;;;13.23;;
72275;SDS011;61204;49.980;8.358;2023-12-07T13:39:49;47.28;;;16.33;;
72275;SDS011;61204;49.980;8.358;2023-12-07T13:42:22;42.22;;;16.25;;
72275;SDS011;61204;49.980;8.358;2023-12-07T13:44:52;41.45;;;15.85;;
72275;SDS011;61204;49.980;8.358;2023-12-07T13:47:22;38.53;;;14.40;;
72275;SDS011;61204;49.980;8.358;2023-12-07T13:49:56;33.42;;;15.70;;
72275;SDS011;61204;49.980;8.358;2023-12-07T13:52:24;37.22;;;16.10;;
72275;SDS011;61204;49.980;8.358;2023-12-07T13:54:51;48.47;;;18.17;;
72275;SDS011;61204;49.980;8.358;2023-12-07T13:57:17;44.53;;;17.90;;
72275;SDS011;61204;49.980;8.358;2023-12-07T13:59:54;49.88;;;19.42;;
72275;SDS011;61204;49.980;8.358;2023-12-07T14:02:20;49.20;;;18.13;;
72275;SDS011;61204;49.980;8.358;2023-12-07T14:04:46;45.92;;;18.23;;
72275;SDS011;61204;49.980;8.358;2023-12-07T14:07:15;55.22;;;19.05;;
72275;SDS011;61204;49.980;8.358;2023-12-07T14:09:46;50.22;;;17.98;;
72275;SDS011;61204;49.980;8.358;2023-12-07T14:12:15;47.28;;;17.80;;
72275;SDS011;61204;49.980;8.358;2023-12-07T14:14:42;54.92;;;19.75;;
72275;SDS011;61204;49.980;8.358;2023-12-07T14:17:15;46.88;;;17.80;;
72275;SDS011;61204;49.980;8.358;2023-12-07T14:19:43;50.50;;;18.42;;
72275;SDS011;61204;49.980;8.358;2023-12-07T14:22:09;44.03;;;16.98;;
72275;SDS011;61204;49.980;8.358;2023-12-07T14:24:35;52.35;;;19.00;;
72275;SDS011;61204;49.980;8.358;2023-12-07T14:27:02;46.15;;;18.40;;
72275;SDS011;61204;49.980;8.358;2023-12-07T14:29:29;48.95;;;17.55;;
72275;SDS011;61204;49.980;8.358;2023-12-07T14:31:57;53.20;;;20.38;;
72275;SDS011;61204;49.980;8.358;2023-12-07T14:34:23;55.55;;;18.77;;
72275;SDS011;61204;49.980;8.358;2023-12-07T14:36:53;48.67;;;17.20;;
72275;SDS011;61204;49.980;8.358;2023-12-07T14:39:18;50.85;;;19.20;;
72275;SDS011;61204;49.980;8.358;2023-12-07T14:41:48;52.35;;;18.70;;